Weather observations for the past three days for
Platteville Municipal Airport
Imperial (Metric)
Date Time (cdt) Wind (mph) Vis. (mi.) Weather Sky Cond. Temperature (ºF) Relative Humidity Wind Chill (°F) Heat Index (°F) Pressure Precipitation (in)
Air Dwpt 6 hour altimeter (in) sea level (mb) 1 hr 3 hr 6 hr
Max. Min.
04 17:35 SW 6 10.00 Fair CLR 83.8 74.3 73% 91 29.93 0.0
04 17:15 SW 6 10.00 Fair CLR 85.5 73 66% 92 29.92 0.0
04 16:55 Calm 10.00 Fair CLR 86.7 73.8 65% 95 29.92 0.0
04 16:35 Calm 10.00 Partly Cloudy SCT040 88.3 76.1 67% 100 29.91 0.0
04 16:15 SW 8 10.00 Partly Cloudy SCT042 90.9 71.1 52% 97 29.93 0.0
04 15:55 S 7 10.00 Fair CLR 91.6 74.5 57% 102 29.9 0.0
04 15:35 S 8 10.00 Fair CLR 89.8 74.8 62% 100 29.9 0.0
04 15:15 S 8 10.00 Fair CLR 88.3 74.8 64% 98 29.91 0.0
04 14:55 S 6 10.00 Fair CLR 87.1 76.1 70% 98 29.91 0.0
04 14:35 S 6 10.00 Fair CLR 87.4 75 67% 97 29.92 0.0
04 14:15 S 8 10.00 Fair CLR 86.5 74.8 68% 96 29.94 0.0
04 13:55 SE 8 10.00 Fair CLR 84.6 75.7 75% 94 29.95 0.0
04 13:35 S 7 10.00 Fair CLR 84.4 72.5 68% 90 29.95 0.0
04 13:15 SE 8 10.00 Fair CLR 84.7 73.8 70% 92 29.96 0.0
04 12:55 SE 7 10.00 Fair CLR 83.8 73.9 86 75.2 72% 91 29.95 0.0
04 12:35 SE 12 10.00 Fair CLR 84.6 73 68% 91 29.95 0.0
04 12:15 SE 7 10.00 Fair CLR 85.5 72.9 66% 92 29.96 0.0
04 11:55 SE 10 10.00 Fair CLR 84.9 73 68% 92 29.96 0.0
04 11:35 E 12 10.00 Fair CLR 83.8 74.3 73% 91 29.97 0.0
04 11:15 E 9 10.00 Fair CLR 83.5 75.2 76% 91 29.97 0.0
04 10:55 E 8 10.00 Fair CLR 82.6 74.5 77% 89 29.97 0.0
04 10:35 E 9 10.00 Partly Cloudy SCT110 80.2 75 84% 85 29.97 0.0
04 10:15 NE 10 7.00 Partly Cloudy SCT100 79.5 75.9 89% 84 29.97 0.0
04 09:55 Calm 10.00 Fair CLR 79.7 73.9 83% 84 29.95 0.0
04 09:35 Calm 10.00 Partly Cloudy SCT100 79.5 73.9 83% 84 29.95 0.0
04 09:15 Calm 10.00 Partly Cloudy SCT110 79 73.6 84% 82 29.94 0.0
04 08:55 S 8 10.00 Fair CLR 80.1 73.6 81% 84 29.94 0.0
04 08:35 S 7 7.00 Fair CLR 79.3 73.4 82% 83 29.94 0.0
04 08:15 Calm 10.00 Partly Cloudy SCT110 77.7 74.1 89% 80 29.93 0.0
04 07:55 Calm 7.00 Partly Cloudy SCT100 SCT120 76.8 75 94% 78 29.92 0.0
04 07:35 Calm 7.00 Partly Cloudy SCT100 75.7 75 98% 74 29.91 0.0
04 07:15 Calm 10.00 Partly Cloudy SCT100 75.2 74.7 98% 73 29.9 0.0
04 06:55 Calm 7.00 Mostly Cloudy BKN100 75.2 74.8 78.3 74.5 99% 73 29.9 0.0
04 06:35 Calm 10.00 Partly Cloudy SCT100 74.5 74.5 100% 29.9 0.0
04 06:15 Calm 10.00 Fair CLR 74.5 74.5 100% 29.9 0.0
04 05:55 S 6 10.00 Partly Cloudy SCT120 74.5 74.5 100% 29.89 0.0
04 05:35 S 6 10.00 Fair CLR 74.5 74.5 100% 29.9 0.0
04 05:15 S 6 10.00 Fair CLR 75.2 75.2 100% 73 29.9 0.0
04 04:55 S 6 10.00 Fair CLR 75.2 75.2 100% 73 29.91 0.0
04 04:35 S 8 10.00 Partly Cloudy SCT120 75.9 75 97% 75 29.91 0.0
04 04:15 S 7 10.00 Partly Cloudy SCT120 76.1 75.9 99% 75 29.91 0.0
04 03:55 S 7 10.00 Mostly Cloudy BKN120 75.9 75.9 100% 75 29.91 0.0
04 03:35 S 5 10.00 Partly Cloudy SCT110 76.1 76.1 100% 75 29.91 0.0
04 03:15 S 6 10.00 Mostly Cloudy BKN110 75.7 75.7 100% 74 29.9 0.0
04 02:55 S 6 10.00 Partly Cloudy SCT120 75.9 75.9 100% 75 29.89 0.0
04 02:35 S 5 7.00 Fair CLR 76.5 76.5 100% 76 29.89 0.0
04 02:15 S 8 10.00 Fair CLR 77.5 77.5 100% 79 29.89 0.0
04 01:55 S 7 10.00 Fair CLR 77.4 77.4 100% 79 29.89 0.0
04 01:35 S 6 10.00 Fair CLR 78.1 77.9 99% 81 29.9 0.0
04 01:15 S 7 10.00 Fair CLR 78.3 78.3 100% 81 29.91 0.0
04 00:55 S 7 10.00 Fair CLR 78.3 78.1 84.7 77.5 99% 81 29.91 0.0
04 00:35 Calm 10.00 Partly Cloudy SCT120 78.3 77.9 99% 81 29.92 0.0
04 00:15 Calm 10.00 Mostly Cloudy BKN120 77.5 77.5 100% 79 29.92 0.0
03 23:55 Calm 10.00 Fair CLR 77.5 77.5 100% 79 29.92 0.0
03 23:35 Calm 10.00 Fair CLR 77.9 77.9 100% 80 29.92 0.0
03 23:15 Calm 7.00 Fair CLR 77.9 77.9 100% 80 29.92 0.0
03 22:55 Calm 10.00 Fair CLR 78.1 78.1 100% 81 29.92 0.0
03 22:35 Calm 10.00 Fair CLR 78.4 77.9 98% 82 29.92 0.0
03 22:15 Calm 10.00 Fair CLR 78.6 77.9 98% 82 29.92 0.0
03 21:55 Calm 10.00 Fair CLR 78.8 78.1 98% 83 29.92 0.0
03 21:35 Calm 10.00 Fair CLR 79.2 78.6 98% 84 29.92 0.0
03 21:15 Calm 10.00 Fair CLR 79.2 79 99% 84 29.91 0.0
03 20:55 SE 7 10.00 Fair CLR 79.7 79.7 100% 86 29.9 0.0
03 20:35 Calm 7.00 Fair CLR 80.6 79.7 97% 89 29.9 0.0
03 20:15 E 6 10.00 Fair CLR 80.8 79.7 97% 89 29.9 0.0
03 19:55 E 3 10.00 Fair CLR 81.5 79.2 93% 91 29.9 0.0
03 19:30 Calm 7.00 Fair CLR 83.3 78.6 86% 94 29.9 0.0
03 19:15 Calm 10.00 Fair CLR 83.8 78.8 85% 95 29.89 0.0
03 18:55 Calm 10.00 Fair CLR 84.9 78.3 87.1 82.4 81% 97 29.89 0.0
03 18:35 Calm 10.00 Fair CLR 86 77.9 77% 98 29.88 0.0
03 18:15 Calm 10.00 Fair CLR 86.5 77.2 74% 98 29.89 0.0
03 17:55 Calm 10.00 Fair CLR 86.9 76.1 70% 97 29.89 0.0
03 17:35 Calm 10.00 Fair CLR 85.5 77 76% 96 29.88 0.0
03 17:15 Calm 10.00 Fair CLR 84.7 75.6 74% 94 29.87 0.0
03 16:55 Calm 10.00 Fair CLR 83.8 75.9 77% 93 29.87 0.0
03 16:35 SE 10 10.00 Fair CLR 84.4 75.6 75% 93 29.85 0.0
03 16:15 SE 8 10.00 Fair CLR 85.5 75 71% 94 29.89 0.0
03 15:55 SE 8 10.00 Fair CLR 84.9 74.8 72% 93 29.9 0.0
03 15:35 SE 6 10.00 Fair CLR 84.7 73.6 69% 92 29.91 0.0
03 15:15 SE 7 10.00 Fair CLR 85.3 72.1 65% 91 29.91 0.0
03 14:55 Calm 10.00 Fair CLR 86 74.1 68% 94 29.92 0.0
03 14:35 Calm 10.00 Fair CLR 84.7 73.9 70% 92 29.93 0.0
03 14:15 E 3 10.00 Fair CLR 83.3 72.7 70% 89 29.93 0.0
03 13:55 E 9 10.00 Fair CLR 84.9 71.8 65% 91 29.94 0.0
03 13:35 E 6 10.00 Fair CLR 84.6 73 68% 91 29.95 0.0
03 13:15 SE 3 10.00 Fair CLR 82.8 71.4 69% 88 29.95 0.0
03 12:55 E 5 10.00 Fair CLR 82.2 70.7 68% 86 29.95 0.0 0.42
03 12:35 SE 5 10.00 Partly Cloudy SCT090 82.2 68.7 64% 85 29.96 0.0
03 12:15 Calm 10.00 Partly Cloudy SCT090 80.2 68 66% 83 29.96 0.0
03 11:55 E 6 10.00 Fair CLR 79.7 68.5 69% 82 29.97 0.0
03 11:35 SE 3 10.00 Fair CLR 80.1 69.1 69% 83 29.97 0.0
03 11:15 E 7 10.00 Fair CLR 79.2 69.6 73% 82 29.96 0.0
03 10:55 E 7 10.00 Fair CLR 77.7 69.1 75% 80 29.95 0.0
03 10:35 E 7 10.00 Fair CLR 76.1 70.5 83% 77 29.96 0.0
03 10:15 E 7 10.00 Fair CLR 75.4 71.2 87% 75 29.97 0.0
03 09:55 NE 6 10.00 Partly Cloudy SCT110 0 0 0% 29.97 0.0 0.42
03 09:35 NE 5 10.00 Partly Cloudy SCT100 0 0 0% 29.97 0.0
03 09:15 N 5 10.00 Partly Cloudy SCT095 0 0 0% 29.98 0.0
03 08:55 Calm 10.00 Partly Cloudy SCT085 0 0 0% 29.98 0.0 0.01
03 08:35 N 5 7.00 Partly Cloudy SCT075 0 0 0% 29.97 0.0 0.01
03 08:15 N 8 7.00 Partly Cloudy SCT019 SCT027 SCT044 0 0 0% 29.97 0.0
03 07:55 N 21 G 28 1.75 Overcast and Breezy BKN017 BKN029 OVC042 0 0 0% 29.98 0.0 0.39
03 07:35 W 7 1.00 Overcast SCT039 BKN070 OVC080 75.6 75.4 99% 74 29.97 0.0
03 07:15 NW 6 7.00 Partly Cloudy SCT100 74.7 74.7 100% 29.94 0.0
03 06:55 S 5 7.00 Partly Cloudy SCT100 75.4 75.2 76.1 74.5 99% 73 29.92 0.0
03 06:35 S 6 7.00 Fair CLR 74.8 74.8 100% 29.92 0.0
03 06:15 S 6 10.00 Partly Cloudy SCT100 74.8 74.8 100% 29.92 0.0
03 05:55 S 7 10.00 Partly Cloudy SCT100 75.4 75.4 100% 73 29.91 0.0
03 05:35 S 6 10.00 Partly Cloudy SCT100 75.4 75.4 100% 73 29.92 0.0
03 05:15 S 7 7.00 Partly Cloudy SCT090 75.7 75.7 100% 74 29.92 0.0
03 04:55 S 6 7.00 Partly Cloudy SCT090 75.6 75.6 100% 74 29.91 0.0
03 04:35 S 6 10.00 Partly Cloudy SCT090 75.4 75.4 100% 73 29.91 0.0
03 04:15 S 5 10.00 Partly Cloudy SCT090 75.7 75.7 100% 74 29.91 0.0
03 03:55 S 6 7.00 Fair CLR 76.1 76.1 100% 75 29.92 0.0
03 03:35 S 6 10.00 Partly Cloudy SCT085 76.1 76.1 100% 75 29.92 0.0
03 03:15 S 6 7.00 Partly Cloudy SCT085 75.2 75.2 100% 73 29.91 0.0
03 02:55 S 5 7.00 Partly Cloudy SCT085 75.2 75.2 100% 73 29.91 0.0
03 02:35 SE 6 10.00 Partly Cloudy SCT085 75.4 75.4 100% 73 29.91 0.0
03 02:15 SE 7 7.00 Partly Cloudy SCT095 75.6 75.6 100% 74 29.91 0.0
03 01:55 SE 6 7.00 Partly Cloudy SCT095 75.2 75.2 100% 73 29.92 0.0
03 01:35 SE 3 7.00 Partly Cloudy SCT095 74.7 74.7 100% 29.92 0.0
03 01:15 SE 5 10.00 Partly Cloudy SCT095 74.7 74.7 100% 29.92 0.0
03 00:55 SE 6 7.00 Fair CLR 74.7 74.7 83.3 74.3 100% 29.92 0.0 0.01
03 00:35 SE 7 7.00 Fair CLR 74.7 74.7 100% 29.92 0.0
03 00:15 Calm 7.00 Partly Cloudy SCT100 74.5 74.5 100% 29.92 0.0
02 23:55 Calm 7.00 Partly Cloudy SCT100 SCT120 75.2 75.2 100% 73 29.93 0.0 0.01
02 23:35 Calm 7.00 Partly Cloudy SCT110 75 75 100% 72 29.94 0.0 0.01
02 23:15 SE 3 10.00 Partly Cloudy SCT100 76.5 75.2 96% 76 29.93 0.0 0.01
02 22:55 Calm 10.00 Partly Cloudy SCT100 76.1 75.4 98% 75 29.94 0.0
02 22:35 Calm 7.00 Partly Cloudy SCT048 SCT050 75.4 75.4 100% 73 29.93 0.0
02 22:15 Calm 7.00 Partly Cloudy SCT048 SCT050 SCT100 75 75 100% 72 29.94 0.0
02 21:55 Calm 7.00 Partly Cloudy SCT110 75.6 75.4 99% 74 29.94 0.0
02 21:35 Calm 7.00 Partly Cloudy SCT120 76.1 74.1 94% 76 29.94 0.0
02 21:15 E 6 7.00 Fair CLR 76.3 73.8 92% 76 29.92 0.0
02 20:55 Calm 10.00 Fair CLR 76.6 73.9 91% 77 29.92 0.0
02 20:35 E 5 7.00 Fair CLR 77.4 72.9 86% 79 29.91 0.0
02 20:15 Calm 10.00 Fair CLR 78.1 73.2 85% 81 29.91 0.0
02 19:55 Calm 10.00 Fair CLR 77.9 73.6 87% 80 29.9 0.0
02 19:35 Calm 7.00 Fair CLR 79.7 72.7 79% 84 29.91 0.0
02 19:15 Calm 10.00 Fair CLR 81.5 69.8 68% 85 29.91 0.0
02 18:55 Calm 10.00 Fair CLR 83.3 67.8 89.6 79.7 60% 86 29.91 0.0
02 18:35 Calm 7.00 Fair CLR 83.5 69.1 62% 87 29.91 0.0
02 18:15 Calm 10.00 Fair CLR 84.2 67.6 58% 87 29.91 0.0
02 17:55 Calm 10.00 Fair CLR 83.7 70.5 65% 88 29.91 0.0
02 17:35 Calm 10.00 Fair CLR 83.3 70.5 65% 88 29.9 0.0
02 17:15 Calm 10.00 Fair CLR 79.7 73.4 81% 84 29.92 0.0
02 16:55 N 6 10.00 Fair CLR 80.6 71.2 73% 84 29.91 0.0
02 16:15 S 13 10.00 Fair CLR 83.3 72.3 70% 89 29.89 0.0
02 15:55 W 5 10.00 Partly Cloudy SCT110 84.4 72.7 68% 91 29.94 0.0
02 15:35 Calm 10.00 Partly Cloudy SCT110 84.4 71.4 65% 90 29.93 0.0
02 15:15 Calm 10.00 Partly Cloudy SCT110 85.5 69.8 60% 90 29.94 0.0
02 14:55 Calm 10.00 Fair CLR 86.5 72 62% 93 29.94 0.0
02 14:35 Calm 10.00 Fair CLR 87.3 69.4 56% 92 29.95 0.0
02 14:15 Calm 10.00 Fair CLR 88 66.2 49% 90 29.95 0.0
02 13:55 W 6 10.00 Fair CLR 88.2 64.2 45% 90 29.95 0.0
02 13:35 S 7 10.00 Fair CLR 89.6 66.6 47% 92 29.94 0.0
02 13:15 S 6 10.00 Fair CLR 88.5 68.5 52% 93 29.94 0.0
02 12:55 W 5 10.00 Fair CLR 88.5 68.7 88.5 71.6 52% 93 29.96 0.0
02 12:35 SW 7 10.00 Fair CLR 86.2 69.3 57% 90 29.95 0.0
02 12:15 Calm 10.00 Fair CLR 87.4 69.4 55% 92 29.96 0.0
02 11:55 Calm 10.00 Fair CLR 85.8 68.9 57% 90 29.97 0.0
02 11:35 SW 5 10.00 Fair CLR 85.3 69.6 60% 90 29.97 0.0
02 11:15 SW 3 10.00 Fair CLR 84.9 69.1 59% 89 29.97 0.0
02 10:55 Calm 10.00 Fair CLR 83.3 70.2 65% 88 29.95 0.0
02 10:35 Calm 10.00 Fair CLR 83.5 68.9 62% 87 29.96 0.0
02 10:15 Calm 10.00 Fair CLR 82.9 70 65% 87 29.96 0.0
02 09:55 Calm 10.00 Fair CLR 82.4 70.2 67% 86 29.97 0.0
02 09:35 Calm 10.00 Fair CLR 81.3 71.1 71% 85 29.96 0.0
02 09:15 Calm 10.00 Fair CLR 79 70.9 76% 82 29.96 0.0
02 08:55 Calm 10.00 Partly Cloudy SCT110 78.3 71.1 79% 81 29.95 0.0
02 08:35 Calm 7.00 Fair CLR 77.2 71.8 84% 79 29.95 0.0
02 08:15 Calm 10.00 Fair CLR 76.5 70.5 82% 78 29.96 0.0
02 07:55 Calm 7.00 Fair CLR 74.3 71.8 92% 29.96 0.0
02 07:35 Calm 7.00 Fair CLR 73.4 72 95% 29.97 0.0
02 07:15 Calm 7.00 Fair CLR 72.5 72.5 100% 29.97 0.0
02 06:55 Calm 5.00 Partly Cloudy SCT090 SCT110 71.6 71.6 77.5 70.7 100% 29.97 0.0
02 06:35 N 3 7.00 Partly Cloudy SCT090 SCT110 71.1 71.1 100% 29.97 0.0
02 06:15 Calm 7.00 Fair CLR 70.7 70.7 100% 29.96 0.0
02 05:55 NW 3 7.00 Fair CLR 71.4 71.4 100% 29.97 0.0
02 05:35 Calm 7.00 Fair CLR 72.9 70.2 91% 29.96 0.0
02 05:15 Calm 10.00 Partly Cloudy SCT090 74.5 68.9 83% 29.96 0.0
02 04:55 Calm 10.00 Mostly Cloudy BKN090 76.1 68 76% 77 29.97 0.0
02 04:35 NW 13 G 17 10.00 Mostly Cloudy BKN090 BKN120 75.4 68 78% 76 29.98 0.0
02 04:15 Calm 10.00 Partly Cloudy SCT090 75.4 68 78% 76 29.95 0.0
02 03:55 S 6 10.00 Partly Cloudy SCT090 SCT110 75.7 67.6 76% 77 29.95 0.0
02 03:35 SW 7 10.00 Partly Cloudy SCT090 SCT110 74.5 68.9 83% 29.95 0.0
02 03:15 S 7 10.00 Fair CLR 73.9 69.6 86% 29.94 0.0
02 02:55 S 7 10.00 Partly Cloudy SCT100 74.3 70 86% 29.94 0.0
02 02:35 S 6 10.00 Partly Cloudy SCT100 74.3 70.5 88% 29.94 0.0
02 02:15 S 7 10.00 Fair CLR 74.8 70 85% 29.94 0.0
02 01:55 S 8 7.00 Fair CLR 74.8 71.4 89% 29.93 0.0
02 01:30 Calm 10.00 Fair CLR 74.1 73.6 98% 29.94 0.0
02 01:15 Calm 10.00 Fair CLR 74.5 73.8 98% 29.94 0.0
02 00:55 Calm 10.00 Fair CLR 75.4 73.9 86.7 75.4 95% 74 29.95 0.0
02 00:35 Calm 10.00 Fair CLR 75.9 74.7 96% 75 29.94 0.0
02 00:15 Calm 10.00 Fair CLR 76.3 75.2 96% 76 29.94 0.0
01 23:55 Calm 10.00 Partly Cloudy SCT120 76.6 76.1 98% 77 29.94 0.0
01 23:35 Calm 10.00 Mostly Cloudy BKN110 77.4 76.1 96% 79 29.95 0.0
01 23:15 Calm 10.00 Partly Cloudy SCT110 77.9 76.3 95% 80 29.95 0.0
01 22:55 Calm 10.00 Partly Cloudy SCT110 77.9 76.5 95% 80 29.96 0.0
01 22:35 Calm 10.00 Fair CLR 78.3 76.5 94% 81 29.95 0.0
01 22:15 Calm 10.00 Fair CLR 78.8 76.3 92% 83 29.95 0.0
01 21:55 Calm 10.00 Fair CLR 79.2 76.1 90% 83 29.95 0.0
01 21:35 Calm 10.00 Fair CLR 79.7 77 92% 85 29.95 0.0
01 21:15 Calm 10.00 Fair CLR 79.9 77.4 92% 86 29.95 0.0
01 20:55 Calm 7.00 Fair CLR 80.6 77.4 90% 87 29.95 0.0
01 20:35 Calm 10.00 Fair CLR 80.2 79.7 98% 88 29.94 0.0
01 20:15 Calm 10.00 Fair CLR 81.5 78.1 89% 90 29.94 0.0
01 19:55 Calm 10.00 Fair CLR 82.8 78.6 87% 93 29.94 0.0
01 19:35 Calm 7.00 Fair CLR 84 77.9 82% 95 29.94 0.0
01 19:15 Calm 10.00 Fair CLR 85.5 77.2 76% 96 29.94 0.0
01 18:55 Calm 10.00 Fair CLR 86.9 77 90.9 86.4 72% 99 29.94 0.0
01 18:35 Calm 7.00 Fair CLR 88.3 75.6 66% 99 29.94 0.0
01 18:15 Calm 10.00 Fair CLR 89.2 74.7 62% 99 29.93 0.0
01 17:55 Calm 10.00 Fair CLR 90 73.2 58% 98 29.94 0.0
Date Time (cdt) Wind (mph) Vis. (mi.) Weather Sky Cond. Air Dwpt Max. Min. Relative Humidity Wind Chill (°F) Heat Index (°F) altimeter (in) sea level (mb) 1 hr 3 hr 6 hr
6 hour
Temperature (ºF) Pressure Precipitation (in)